createdAt,value
2023-02-19T00:01:17.172Z,16.83
2023-02-19T00:04:20.101Z,15.95
2023-02-19T00:07:21.725Z,15.97
2023-02-19T00:10:26.288Z,16.13
2023-02-19T00:13:28.141Z,15.80
2023-02-19T00:16:31.750Z,14.77
2023-02-19T00:19:33.351Z,14.43
2023-02-19T00:22:34.960Z,14.27
2023-02-19T00:25:41.243Z,14.30
2023-02-19T00:28:42.841Z,14.60
2023-02-19T00:31:44.747Z,14.38
2023-02-19T00:34:46.406Z,14.40
2023-02-19T00:37:48.012Z,14.07
2023-02-19T00:40:49.584Z,14.20
2023-02-19T00:43:56.215Z,13.95
2023-02-19T00:46:57.853Z,14.23
2023-02-19T00:49:59.457Z,14.43
2023-02-19T00:53:01.105Z,14.10
2023-02-19T00:56:06.667Z,13.68
2023-02-19T00:59:08.256Z,12.90
2023-02-19T01:02:09.844Z,11.80
2023-02-19T01:05:11.417Z,11.50
2023-02-19T01:08:12.987Z,12.73
2023-02-19T01:11:18.043Z,12.65
2023-02-19T01:14:23.609Z,11.30
2023-02-19T01:17:25.204Z,10.25
2023-02-19T01:20:27.134Z,9.87
2023-02-19T01:23:28.733Z,8.52
2023-02-19T01:26:35.729Z,8.65
2023-02-19T01:29:37.555Z,8.30
2023-02-19T01:32:39.233Z,7.65
2023-02-19T01:35:40.851Z,7.80
2023-02-19T01:38:42.464Z,11.23
2023-02-19T01:41:47.080Z,13.23
2023-02-19T01:44:48.688Z,12.40
2023-02-19T01:47:56.560Z,11.40
2023-02-19T01:51:07.275Z,11.43
2023-02-19T01:54:09.728Z,11.23
2023-02-19T01:57:20.939Z,10.93
2023-02-19T02:00:24.360Z,11.68
2023-02-19T02:03:25.991Z,11.80
2023-02-19T02:06:31.855Z,12.00
2023-02-19T02:09:52.137Z,11.63
2023-02-19T02:12:58.651Z,10.95
2023-02-19T02:16:21.800Z,10.93
2023-02-19T02:19:27.793Z,12.13
2023-02-19T02:22:35.291Z,10.80
2023-02-19T02:26:02.362Z,10.70
2023-02-19T02:29:29.694Z,10.77
2023-02-19T02:32:33.760Z,10.10
2023-02-19T02:35:40.370Z,9.90
2023-02-19T02:38:43.004Z,8.63
2023-02-19T02:41:45.846Z,8.35
2023-02-19T02:45:07.694Z,7.35
2023-02-19T02:48:25.055Z,6.60
2023-02-19T02:51:36.825Z,7.07
2023-02-19T02:54:57.112Z,6.50
2023-02-19T02:57:58.717Z,6.30
2023-02-19T03:01:21.981Z,6.47
2023-02-19T03:05:20.100Z,5.90
2023-02-19T03:08:26.467Z,6.45
2023-02-19T03:11:46.916Z,5.77
2023-02-19T03:15:10.874Z,5.72
2023-02-19T03:18:31.089Z,5.28
2023-02-19T03:21:32.873Z,5.72
2023-02-19T03:24:53.535Z,6.15
2023-02-19T03:27:59.617Z,8.70
2023-02-19T03:31:01.238Z,9.20
2023-02-19T03:34:10.504Z,8.68
2023-02-19T03:37:25.219Z,9.15
2023-02-19T03:40:28.400Z,11.18
2023-02-19T03:44:02.390Z,10.57
2023-02-19T03:47:19.795Z,11.90
2023-02-19T03:50:27.657Z,13.02
2023-02-19T03:53:33.983Z,13.15
2023-02-19T03:56:42.995Z,12.98
2023-02-19T04:00:10.219Z,15.13
2023-02-19T04:03:33.260Z,14.65
2023-02-19T04:06:34.945Z,16.70
2023-02-19T04:09:38.322Z,17.30
2023-02-19T04:12:41.611Z,17.63
2023-02-19T04:15:46.948Z,17.67
2023-02-19T04:18:50.764Z,19.02
2023-02-19T04:21:52.388Z,17.40
2023-02-19T04:24:54.035Z,18.43
2023-02-19T04:27:55.715Z,17.50
2023-02-19T04:30:57.364Z,17.92
2023-02-19T04:33:58.998Z,16.95
2023-02-19T04:37:00.602Z,15.52
2023-02-19T04:40:02.217Z,18.43
2023-02-19T04:43:03.887Z,17.02
2023-02-19T04:46:05.616Z,15.63
2023-02-19T04:49:07.205Z,19.17
2023-02-19T04:52:08.822Z,16.70
2023-02-19T04:55:11.082Z,17.23
2023-02-19T04:58:12.710Z,16.65
2023-02-19T05:01:14.689Z,16.23
2023-02-19T05:04:16.462Z,17.13
2023-02-19T05:07:18.328Z,16.67
2023-02-19T05:10:19.947Z,16.88
2023-02-19T05:13:21.570Z,16.15
2023-02-19T05:16:23.355Z,15.88
2023-02-19T05:19:24.984Z,16.10
2023-02-19T05:22:26.592Z,15.40
2023-02-19T05:25:28.198Z,16.20
2023-02-19T05:28:29.813Z,14.55
2023-02-19T05:31:33.768Z,16.17
2023-02-19T05:34:35.424Z,14.53
2023-02-19T05:37:37.128Z,14.98
2023-02-19T05:40:39.089Z,14.52
2023-02-19T05:43:41.161Z,13.88
2023-02-19T05:46:47.070Z,15.90
2023-02-19T05:49:48.653Z,15.13
2023-02-19T05:52:50.215Z,13.93
2023-02-19T05:55:51.816Z,14.90
2023-02-19T05:58:53.913Z,14.85
2023-02-19T06:01:58.438Z,14.10
2023-02-19T06:05:00.019Z,14.02
2023-02-19T06:08:01.738Z,14.70
2023-02-19T06:11:03.324Z,13.57
2023-02-19T06:14:05.257Z,14.13
2023-02-19T06:17:06.942Z,14.80
2023-02-19T06:20:09.020Z,14.95
2023-02-19T06:23:10.613Z,15.35
2023-02-19T06:26:22.972Z,15.00
2023-02-19T06:29:24.939Z,14.23
2023-02-19T06:32:26.622Z,13.77
2023-02-19T06:35:28.337Z,14.57
2023-02-19T06:38:30.055Z,13.77
2023-02-19T06:41:31.739Z,14.15
2023-02-19T06:44:33.385Z,13.88
2023-02-19T06:47:38.840Z,14.07
2023-02-19T06:50:40.401Z,13.80
2023-02-19T06:53:42.003Z,14.00
2023-02-19T06:56:46.100Z,15.93
2023-02-19T06:59:48.554Z,15.00
2023-02-19T07:03:00.091Z,15.50
2023-02-19T07:06:01.765Z,13.27
2023-02-19T07:09:03.992Z,15.23
2023-02-19T07:12:06.091Z,14.15
2023-02-19T07:15:08.071Z,15.73
2023-02-19T07:18:10.607Z,14.17
2023-02-19T07:21:18.012Z,14.05
2023-02-19T07:24:21.593Z,14.40
2023-02-19T07:27:23.226Z,14.07
2023-02-19T07:30:24.856Z,13.97
2023-02-19T07:33:30.954Z,14.00
2023-02-19T07:36:32.562Z,14.77
2023-02-19T07:39:34.169Z,14.95
2023-02-19T07:42:35.755Z,14.03
2023-02-19T07:45:37.377Z,14.77
2023-02-19T07:48:43.254Z,15.10
2023-02-19T07:51:45.219Z,15.35
2023-02-19T07:54:46.894Z,15.55
2023-02-19T07:57:48.504Z,16.77
2023-02-19T08:00:50.102Z,16.35
2023-02-19T08:03:54.609Z,15.75
2023-02-19T08:06:56.463Z,15.20
2023-02-19T08:10:16.782Z,15.40
2023-02-19T08:13:24.377Z,15.57
2023-02-19T08:16:41.896Z,16.15
2023-02-19T08:19:44.707Z,16.52
2023-02-19T08:22:46.282Z,15.93
2023-02-19T08:25:48.535Z,15.53
2023-02-19T08:28:50.136Z,16.27
2023-02-19T08:31:51.758Z,16.85
2023-02-19T08:34:56.954Z,17.52
2023-02-19T08:37:58.824Z,17.55
2023-02-19T08:41:00.439Z,16.93
2023-02-19T08:44:02.015Z,17.95
2023-02-19T08:47:05.002Z,19.65
2023-02-19T08:50:07.846Z,18.85
2023-02-19T08:53:09.530Z,19.20
2023-02-19T08:56:13.014Z,19.47
2023-02-19T08:59:14.641Z,19.50
2023-02-19T09:02:16.437Z,20.80
2023-02-19T09:05:21.460Z,19.25
2023-02-19T09:08:23.028Z,20.63
2023-02-19T09:11:24.695Z,18.77
2023-02-19T09:14:26.428Z,19.17
2023-02-19T09:17:28.105Z,18.88
2023-02-19T09:20:32.822Z,18.90
2023-02-19T09:23:34.659Z,18.80
2023-02-19T09:26:38.532Z,18.47
2023-02-19T09:29:40.266Z,18.20
2023-02-19T09:32:41.828Z,19.02
2023-02-19T09:35:46.863Z,17.98
2023-02-19T09:38:51.486Z,17.87
2023-02-19T09:41:55.515Z,17.80
2023-02-19T09:44:58.871Z,16.95
2023-02-19T09:48:00.540Z,18.45
2023-02-19T09:51:05.477Z,19.13
2023-02-19T09:54:07.997Z,17.73
2023-02-19T09:57:18.524Z,18.23
2023-02-19T10:00:20.345Z,18.67
2023-02-19T10:03:25.676Z,18.70
2023-02-19T10:06:29.859Z,18.45
2023-02-19T10:09:31.641Z,18.27
2023-02-19T10:12:34.696Z,19.27
2023-02-19T10:15:46.635Z,18.10
2023-02-19T10:18:48.415Z,17.65
2023-02-19T10:21:54.262Z,17.65
2023-02-19T10:24:55.911Z,18.20
2023-02-19T10:28:01.311Z,18.37
2023-02-19T10:31:05.366Z,19.08
2023-02-19T10:34:07.642Z,19.50
2023-02-19T10:37:12.220Z,18.15
2023-02-19T10:40:18.940Z,18.20
2023-02-19T10:43:22.881Z,17.00
2023-02-19T10:46:28.584Z,18.17
2023-02-19T10:49:37.395Z,18.30
2023-02-19T10:52:43.141Z,19.08
2023-02-19T10:55:45.599Z,17.83
2023-02-19T10:58:47.755Z,16.87
2023-02-19T11:02:02.569Z,18.08
2023-02-19T11:05:14.832Z,17.65
2023-02-19T11:08:21.689Z,17.08
2023-02-19T11:11:24.144Z,17.67
2023-02-19T11:14:25.985Z,17.17
2023-02-19T11:17:28.894Z,16.50
2023-02-19T11:20:32.164Z,17.27
2023-02-19T11:23:48.166Z,16.52
2023-02-19T11:26:49.760Z,16.43
2023-02-19T11:29:51.349Z,16.20
2023-02-19T11:32:54.709Z,16.23
2023-02-19T11:36:15.244Z,16.58
2023-02-19T11:39:21.170Z,16.83
2023-02-19T11:42:48.740Z,16.53
2023-02-19T11:46:09.562Z,15.93
2023-02-19T11:49:26.461Z,15.98
2023-02-19T11:52:41.810Z,15.73
2023-02-19T11:56:01.630Z,15.27
2023-02-19T11:59:07.755Z,16.80
2023-02-19T12:02:34.040Z,15.03
2023-02-19T12:05:56.470Z,16.00
2023-02-19T12:09:23.168Z,16.60
2023-02-19T12:12:45.884Z,15.25
2023-02-19T12:15:59.565Z,15.83
2023-02-19T12:19:22.854Z,16.00
2023-02-19T12:22:27.983Z,16.08
2023-02-19T12:25:35.818Z,16.73
2023-02-19T12:29:05.519Z,15.60
2023-02-19T12:32:25.555Z,15.13
2023-02-19T12:35:29.019Z,14.67
2023-02-19T12:38:40.230Z,14.63
2023-02-19T12:41:49.902Z,14.68
2023-02-19T12:44:57.695Z,14.57
2023-02-19T12:48:14.662Z,13.83
2023-02-19T12:51:27.907Z,13.90
2023-02-19T12:54:39.208Z,14.07
2023-02-19T12:57:40.822Z,12.82
2023-02-19T13:00:50.381Z,13.70
2023-02-19T13:04:25.897Z,12.33
2023-02-19T13:07:38.180Z,12.33
2023-02-19T13:10:55.420Z,10.57
2023-02-19T13:14:07.383Z,11.90
2023-02-19T13:17:26.799Z,11.65
2023-02-19T13:20:31.950Z,11.67
2023-02-19T13:24:02.432Z,8.63
2023-02-19T13:27:36.860Z,9.90
2023-02-19T13:31:03.730Z,6.90
2023-02-19T13:34:17.540Z,5.78
2023-02-19T13:37:19.166Z,4.70
2023-02-19T13:40:29.676Z,4.20
2023-02-19T13:43:37.147Z,3.78
2023-02-19T13:46:40.395Z,2.85
2023-02-19T13:49:42.251Z,3.28
2023-02-19T13:52:43.942Z,2.63
2023-02-19T13:55:49.674Z,3.00
2023-02-19T13:58:53.882Z,3.20
2023-02-19T14:01:58.296Z,3.90
2023-02-19T14:05:12.019Z,3.55
2023-02-19T14:08:13.719Z,3.60
2023-02-19T14:11:20.152Z,3.90
2023-02-19T14:14:25.546Z,3.30
2023-02-19T14:17:41.875Z,2.25
2023-02-19T14:20:45.014Z,2.47
2023-02-19T14:23:56.941Z,1.30
2023-02-19T14:26:58.574Z,1.00
2023-02-19T14:30:00.229Z,1.25
2023-02-19T14:33:10.696Z,1.17
2023-02-19T14:36:34.101Z,1.10
2023-02-19T14:39:42.191Z,1.00
2023-02-19T14:42:43.795Z,0.93
2023-02-19T14:45:48.922Z,0.90
2023-02-19T14:48:50.522Z,0.80
2023-02-19T14:52:04.010Z,1.10
2023-02-19T14:55:16.079Z,0.80
2023-02-19T14:58:22.065Z,0.80
2023-02-19T15:01:27.955Z,0.57
2023-02-19T15:04:34.465Z,0.80
2023-02-19T15:07:36.070Z,0.60
2023-02-19T15:10:37.678Z,0.80
2023-02-19T15:13:45.527Z,0.70
2023-02-19T15:16:47.138Z,0.75
2023-02-19T15:19:48.772Z,0.80
2023-02-19T15:22:50.389Z,0.80
2023-02-19T15:25:52.895Z,0.80
2023-02-19T15:29:02.225Z,0.80
2023-02-19T15:32:17.517Z,1.10
2023-02-19T15:35:19.804Z,1.30
2023-02-19T15:38:21.646Z,1.30
2023-02-19T15:41:27.091Z,1.60
2023-02-19T15:45:07.610Z,1.67
2023-02-19T15:48:12.547Z,1.42
2023-02-19T15:51:16.752Z,1.70
2023-02-19T15:54:30.661Z,1.70
2023-02-19T15:57:35.184Z,1.73
2023-02-19T16:00:42.675Z,1.47
2023-02-19T16:03:44.286Z,1.38
2023-02-19T16:06:56.627Z,1.40
2023-02-19T16:10:24.322Z,1.33
2023-02-19T16:13:34.310Z,1.20
2023-02-19T16:16:36.468Z,1.50
2023-02-19T16:19:48.479Z,1.20
2023-02-19T16:22:50.223Z,1.58
2023-02-19T16:26:06.281Z,1.35
2023-02-19T16:29:20.174Z,1.50
2023-02-19T16:32:21.869Z,1.50
2023-02-19T16:35:42.231Z,1.80
2023-02-19T16:39:09.274Z,1.58
2023-02-19T16:42:15.265Z,1.60
2023-02-19T16:45:18.387Z,1.53
2023-02-19T16:48:21.441Z,1.80
2023-02-19T16:51:26.713Z,1.40
2023-02-19T16:54:28.318Z,1.48
2023-02-19T16:57:29.950Z,1.10
2023-02-19T17:00:31.756Z,1.00
2023-02-19T17:03:33.376Z,1.07
2023-02-19T17:06:37.700Z,1.00
2023-02-19T17:09:39.287Z,0.98
2023-02-19T17:12:44.309Z,1.30
2023-02-19T17:15:45.913Z,0.80
2023-02-19T17:18:47.556Z,0.90
2023-02-19T17:21:49.234Z,0.90
2023-02-19T17:24:50.917Z,1.15
2023-02-19T17:27:52.511Z,1.75
2023-02-19T17:30:54.257Z,1.40
2023-02-19T17:33:55.959Z,1.40
2023-02-19T17:36:57.571Z,1.70
2023-02-19T17:39:59.188Z,0.93
2023-02-19T17:43:04.306Z,1.25
2023-02-19T17:46:06.067Z,1.20
2023-02-19T17:49:07.934Z,1.20
2023-02-19T17:52:10.545Z,1.38
2023-02-19T17:55:18.453Z,1.20
2023-02-19T17:58:20.178Z,1.25
2023-02-19T18:01:21.975Z,1.20
2023-02-19T18:04:23.633Z,1.10
2023-02-19T18:07:25.247Z,1.35
2023-02-19T18:10:26.838Z,1.00
2023-02-19T18:13:32.463Z,0.70
2023-02-19T18:16:34.110Z,1.00
2023-02-19T18:19:35.721Z,0.98
2023-02-19T18:22:39.892Z,1.10
2023-02-19T18:25:41.552Z,1.52
2023-02-19T18:28:43.099Z,1.40
2023-02-19T18:31:45.003Z,1.53
2023-02-19T18:34:53.442Z,1.88
2023-02-19T18:37:55.886Z,1.90
2023-02-19T18:40:58.875Z,1.40
2023-02-19T18:44:03.306Z,1.10
2023-02-19T18:47:05.562Z,1.03
2023-02-19T18:50:08.599Z,1.33
2023-02-19T18:53:10.512Z,1.08
2023-02-19T18:56:12.068Z,0.90
2023-02-19T18:59:17.384Z,0.60
2023-02-19T19:02:19.289Z,1.00
2023-02-19T19:05:22.906Z,1.00
2023-02-19T19:08:24.714Z,0.90
2023-02-19T19:11:26.359Z,1.13
2023-02-19T19:14:27.951Z,1.13
2023-02-19T19:17:29.563Z,1.02
2023-02-19T19:20:31.194Z,1.20
2023-02-19T19:23:32.785Z,0.98
2023-02-19T19:26:34.520Z,0.90
2023-02-19T19:29:36.323Z,0.98
2023-02-19T19:32:38.119Z,0.88
2023-02-19T19:35:39.722Z,1.38
2023-02-19T19:38:41.428Z,0.93
2023-02-19T19:41:43.048Z,0.90
2023-02-19T19:44:45.441Z,1.20
2023-02-19T19:47:47.037Z,0.80
2023-02-19T19:50:48.613Z,1.20
2023-02-19T19:53:50.290Z,1.08
2023-02-19T19:56:51.970Z,1.30
2023-02-19T19:59:53.650Z,1.40
2023-02-19T20:02:55.337Z,1.20
2023-02-19T20:05:59.172Z,1.45
2023-02-19T20:09:00.845Z,1.20
2023-02-19T20:12:03.083Z,1.60
2023-02-19T20:15:04.892Z,1.40
2023-02-19T20:18:06.526Z,1.60
2023-02-19T20:21:09.646Z,1.52
2023-02-19T20:24:18.638Z,1.83
2023-02-19T20:27:20.798Z,2.17
2023-02-19T20:30:26.255Z,1.85
2023-02-19T20:33:27.875Z,2.00
2023-02-19T20:36:29.507Z,2.05
2023-02-19T20:39:31.650Z,2.22
2023-02-19T20:42:33.291Z,2.00
2023-02-19T20:45:34.888Z,2.10
2023-02-19T20:48:36.521Z,2.00
2023-02-19T20:51:48.333Z,1.80
2023-02-19T20:54:49.931Z,2.13
2023-02-19T20:57:51.513Z,2.05
2023-02-19T21:00:55.886Z,2.03
2023-02-19T21:04:01.640Z,2.40
2023-02-19T21:07:06.285Z,2.35
2023-02-19T21:10:08.612Z,2.85
2023-02-19T21:13:10.230Z,3.20
2023-02-19T21:16:16.604Z,2.93
2023-02-19T21:19:18.241Z,2.92
2023-02-19T21:22:19.830Z,3.35
2023-02-19T21:25:21.504Z,2.70
2023-02-19T21:28:24.215Z,2.80
2023-02-19T21:31:41.304Z,3.25
2023-02-19T21:34:43.063Z,2.58
2023-02-19T21:37:44.665Z,2.63
2023-02-19T21:40:46.242Z,2.13
2023-02-19T21:43:47.860Z,2.42
2023-02-19T21:46:49.471Z,2.08
2023-02-19T21:49:51.064Z,2.10
2023-02-19T21:52:52.745Z,1.88
2023-02-19T21:55:58.736Z,1.80
2023-02-19T21:59:00.680Z,1.63
2023-02-19T22:02:06.761Z,1.80
2023-02-19T22:05:08.610Z,1.77
2023-02-19T22:08:10.197Z,1.63
2023-02-19T22:11:11.822Z,1.95
2023-02-19T22:14:13.436Z,1.60
2023-02-19T22:17:18.131Z,2.08
2023-02-19T22:20:19.728Z,2.25
2023-02-19T22:23:21.296Z,1.95
2023-02-19T22:26:28.124Z,1.70
2023-02-19T22:29:29.902Z,2.20
2023-02-19T22:32:31.603Z,2.58
2023-02-19T22:35:33.312Z,2.65
2023-02-19T22:38:34.903Z,2.20
2023-02-19T22:41:36.472Z,2.72
2023-02-19T22:44:38.396Z,2.10
2023-02-19T22:47:44.610Z,2.37
2023-02-19T22:50:46.241Z,2.65
2023-02-19T22:53:52.369Z,2.63
2023-02-19T22:56:54.539Z,2.90
2023-02-19T22:59:56.167Z,2.73
2023-02-19T23:03:01.238Z,3.00
2023-02-19T23:06:04.235Z,3.08
2023-02-19T23:09:10.543Z,3.40
2023-02-19T23:12:12.573Z,3.40
2023-02-19T23:15:14.167Z,3.05
2023-02-19T23:18:19.795Z,3.13
2023-02-19T23:21:21.686Z,3.47
2023-02-19T23:24:23.272Z,3.42
2023-02-19T23:27:26.698Z,2.92
2023-02-19T23:30:28.385Z,3.20
2023-02-19T23:33:30.038Z,3.50
2023-02-19T23:36:31.651Z,3.00
2023-02-19T23:39:33.282Z,3.45
2023-02-19T23:42:34.944Z,3.40
2023-02-19T23:45:36.576Z,3.22
2023-02-19T23:48:41.605Z,3.63
2023-02-19T23:51:43.233Z,3.67
2023-02-19T23:54:44.917Z,3.03
2023-02-19T23:57:46.516Z,3.65
